createdAt,value
2022-07-25T00:01:45.797Z,1.60
2022-07-25T00:04:14.529Z,2.00
2022-07-25T00:06:43.000Z,1.50
2022-07-25T00:09:10.603Z,1.63
2022-07-25T00:11:37.906Z,1.75
2022-07-25T00:14:05.320Z,1.90
2022-07-25T00:16:32.443Z,1.77
2022-07-25T00:18:59.332Z,1.60
2022-07-25T00:21:26.284Z,2.00
2022-07-25T00:23:53.074Z,1.52
2022-07-25T00:26:19.879Z,1.85
2022-07-25T00:28:46.706Z,1.85
2022-07-25T00:31:13.576Z,2.03
2022-07-25T00:33:40.615Z,1.60
2022-07-25T00:36:08.459Z,1.55
2022-07-25T00:38:35.425Z,1.35
2022-07-25T00:41:03.088Z,1.73
2022-07-25T00:43:29.883Z,1.75
2022-07-25T00:45:59.534Z,1.67
2022-07-25T00:48:29.866Z,1.63
2022-07-25T00:50:57.144Z,1.52
2022-07-25T00:53:24.470Z,1.50
2022-07-25T00:55:51.977Z,1.75
2022-07-25T00:58:19.051Z,1.70
2022-07-25T01:00:46.166Z,1.80
2022-07-25T01:03:13.045Z,1.83
2022-07-25T01:05:39.884Z,1.40
2022-07-25T01:08:06.702Z,1.50
2022-07-25T01:10:34.181Z,1.70
2022-07-25T01:13:01.080Z,1.73
2022-07-25T01:15:28.037Z,1.58
2022-07-25T01:17:54.776Z,1.52
2022-07-25T01:20:24.110Z,1.85
2022-07-25T01:22:51.420Z,1.63
2022-07-25T01:25:19.608Z,1.60
2022-07-25T01:27:51.252Z,1.95
2022-07-25T01:30:22.050Z,1.73
2022-07-25T01:32:48.785Z,1.45
2022-07-25T01:35:15.698Z,1.50
2022-07-25T01:37:42.428Z,2.00
2022-07-25T01:40:13.984Z,1.50
2022-07-25T01:42:41.558Z,1.40
2022-07-25T01:45:09.078Z,1.73
2022-07-25T01:47:35.775Z,1.52
2022-07-25T01:50:02.699Z,1.52
2022-07-25T01:52:29.403Z,1.50
2022-07-25T01:54:56.508Z,1.50
2022-07-25T01:57:23.298Z,1.73
2022-07-25T01:59:57.651Z,1.50
2022-07-25T02:02:24.469Z,1.27
2022-07-25T02:04:51.270Z,1.70
2022-07-25T02:07:18.052Z,1.65
2022-07-25T02:09:44.786Z,1.67
2022-07-25T02:12:11.513Z,1.48
2022-07-25T02:14:38.271Z,1.17
2022-07-25T02:17:05.110Z,1.55
2022-07-25T02:19:32.683Z,1.77
2022-07-25T02:21:59.404Z,1.27
2022-07-25T02:24:26.148Z,1.50
2022-07-25T02:26:52.866Z,1.30
2022-07-25T02:29:21.829Z,1.60
2022-07-25T02:31:53.235Z,1.30
2022-07-25T02:34:19.972Z,1.40
2022-07-25T02:36:46.741Z,1.60
2022-07-25T02:39:13.464Z,1.42
2022-07-25T02:41:40.371Z,1.13
2022-07-25T02:44:07.615Z,1.35
2022-07-25T02:46:34.650Z,1.30
2022-07-25T02:49:02.004Z,1.67
2022-07-25T02:51:28.969Z,1.45
2022-07-25T02:53:57.620Z,1.52
2022-07-25T02:56:25.350Z,1.70
2022-07-25T02:58:52.029Z,1.75
2022-07-25T03:01:18.873Z,1.48
2022-07-25T03:03:45.709Z,1.70
2022-07-25T03:06:12.431Z,1.95
2022-07-25T03:08:39.313Z,1.90
2022-07-25T03:11:06.386Z,1.40
2022-07-25T03:13:33.426Z,1.80
2022-07-25T03:16:00.415Z,1.50
2022-07-25T03:18:27.282Z,1.63
2022-07-25T03:20:54.238Z,1.80
2022-07-25T03:23:20.985Z,1.50
2022-07-25T03:25:47.714Z,1.48
2022-07-25T03:28:14.433Z,1.35
2022-07-25T03:30:41.202Z,1.60
2022-07-25T03:33:08.171Z,1.70
2022-07-25T03:35:35.310Z,1.45
2022-07-25T03:38:02.154Z,1.98
2022-07-25T03:40:28.928Z,1.48
2022-07-25T03:42:55.674Z,1.77
2022-07-25T03:45:22.496Z,1.40
2022-07-25T03:47:49.326Z,1.50
2022-07-25T03:50:16.142Z,1.63
2022-07-25T03:52:42.880Z,1.50
2022-07-25T03:55:11.082Z,1.58
2022-07-25T03:57:38.407Z,1.42
2022-07-25T04:00:09.713Z,1.60
2022-07-25T04:02:38.005Z,1.55
2022-07-25T04:05:06.538Z,1.58
2022-07-25T04:07:33.441Z,1.75
2022-07-25T04:10:00.195Z,1.52
2022-07-25T04:12:26.880Z,1.70
2022-07-25T04:14:53.575Z,1.58
2022-07-25T04:17:20.529Z,1.60
2022-07-25T04:19:48.287Z,1.45
2022-07-25T04:22:15.931Z,1.70
2022-07-25T04:24:42.663Z,1.70
2022-07-25T04:27:09.388Z,1.67
2022-07-25T04:29:36.107Z,1.58
2022-07-25T04:32:02.889Z,1.55
2022-07-25T04:34:29.724Z,1.60
2022-07-25T04:36:56.437Z,1.85
2022-07-25T04:39:23.219Z,1.40
2022-07-25T04:41:50.121Z,1.73
2022-07-25T04:44:16.900Z,1.65
2022-07-25T04:46:43.634Z,1.77
2022-07-25T04:49:10.410Z,1.60
2022-07-25T04:51:37.271Z,1.45
2022-07-25T04:54:04.356Z,1.92
2022-07-25T04:56:31.376Z,1.70
2022-07-25T04:59:01.858Z,1.88
2022-07-25T05:01:31.794Z,1.90
2022-07-25T05:03:58.559Z,1.90
2022-07-25T05:06:25.353Z,1.67
2022-07-25T05:08:52.165Z,1.80
2022-07-25T05:11:18.956Z,1.80
2022-07-25T05:13:45.707Z,1.88
2022-07-25T05:16:12.485Z,1.50
2022-07-25T05:18:39.267Z,1.65
2022-07-25T05:21:05.981Z,1.65
2022-07-25T05:23:32.759Z,1.73
2022-07-25T05:25:59.482Z,1.73
2022-07-25T05:28:26.187Z,1.60
2022-07-25T05:30:52.889Z,1.70
2022-07-25T05:33:19.588Z,1.77
2022-07-25T05:35:46.533Z,1.65
2022-07-25T05:38:13.290Z,1.65
2022-07-25T05:40:39.996Z,1.70
2022-07-25T05:43:09.536Z,2.10
2022-07-25T05:45:36.277Z,1.92
2022-07-25T05:48:03.045Z,1.90
2022-07-25T05:50:29.727Z,2.20
2022-07-25T05:52:56.438Z,2.00
2022-07-25T05:55:23.134Z,2.00
2022-07-25T05:57:49.840Z,2.03
2022-07-25T06:00:16.822Z,2.00
2022-07-25T06:02:43.741Z,2.05
2022-07-25T06:05:10.543Z,2.08
2022-07-25T06:07:37.296Z,2.28
2022-07-25T06:10:04.986Z,2.25
2022-07-25T06:12:33.771Z,2.42
2022-07-25T06:15:04.556Z,2.90
2022-07-25T06:17:32.648Z,2.38
2022-07-25T06:19:59.599Z,2.25
2022-07-25T06:22:26.268Z,2.42
2022-07-25T06:24:53.027Z,2.63
2022-07-25T06:27:21.602Z,2.67
2022-07-25T06:29:49.910Z,2.70
2022-07-25T06:32:16.636Z,2.50
2022-07-25T06:34:43.784Z,2.65
2022-07-25T06:37:10.569Z,2.60
2022-07-25T06:39:38.745Z,2.50
2022-07-25T06:42:07.186Z,2.80
2022-07-25T06:44:35.123Z,2.50
2022-07-25T06:47:02.710Z,2.60
2022-07-25T06:49:29.721Z,2.80
2022-07-25T06:51:56.414Z,2.67
2022-07-25T06:54:23.209Z,3.20
2022-07-25T06:56:49.998Z,2.75
2022-07-25T06:59:16.697Z,3.03
2022-07-25T07:01:45.966Z,2.95
2022-07-25T07:04:16.598Z,2.90
2022-07-25T07:06:44.031Z,2.90
2022-07-25T07:09:10.885Z,2.90
2022-07-25T07:11:37.810Z,2.88
2022-07-25T07:14:05.358Z,2.90
2022-07-25T07:16:32.514Z,2.90
2022-07-25T07:18:59.391Z,2.90
2022-07-25T07:21:26.155Z,3.40
2022-07-25T07:23:53.504Z,3.42
2022-07-25T07:26:20.669Z,3.15
2022-07-25T07:28:47.495Z,3.58
2022-07-25T07:31:17.895Z,3.88
2022-07-25T07:33:45.801Z,3.20
2022-07-25T07:36:12.712Z,3.90
2022-07-25T07:38:40.188Z,3.88
2022-07-25T07:41:07.110Z,4.00
2022-07-25T07:43:34.034Z,4.60
2022-07-25T07:46:01.301Z,4.05
2022-07-25T07:48:32.886Z,4.45
2022-07-25T07:51:00.657Z,4.30
2022-07-25T07:53:47.818Z,4.20
2022-07-25T07:56:15.469Z,3.95
2022-07-25T07:58:42.312Z,4.25
2022-07-25T08:01:09.049Z,4.20
2022-07-25T08:03:36.287Z,4.70
2022-07-25T08:06:03.006Z,4.00
2022-07-25T08:08:31.546Z,4.60
2022-07-25T08:10:59.454Z,4.93
2022-07-25T08:13:31.654Z,4.40
2022-07-25T08:16:01.536Z,4.68
2022-07-25T08:18:30.130Z,4.50
2022-07-25T08:20:57.012Z,4.45
2022-07-25T08:23:25.433Z,4.43
2022-07-25T08:25:52.422Z,4.50
2022-07-25T08:28:19.551Z,4.45
2022-07-25T08:30:46.665Z,4.18
2022-07-25T08:33:16.310Z,4.18
2022-07-25T08:36:01.311Z,4.25
2022-07-25T08:38:28.861Z,4.47
2022-07-25T08:40:56.818Z,4.55
2022-07-25T08:43:23.839Z,4.03
2022-07-25T08:45:52.880Z,4.07
2022-07-25T08:48:25.104Z,4.32
2022-07-25T08:50:53.064Z,4.82
2022-07-25T08:53:36.616Z,4.10
2022-07-25T08:56:11.136Z,4.78
2022-07-25T08:58:41.651Z,4.50
2022-07-25T09:01:08.716Z,4.60
2022-07-25T09:03:36.497Z,4.65
2022-07-25T09:06:19.935Z,5.00
2022-07-25T09:08:57.784Z,4.68
2022-07-25T09:11:28.255Z,4.47
2022-07-25T09:14:07.396Z,4.57
2022-07-25T09:16:40.934Z,5.07
2022-07-25T09:19:15.056Z,4.88
2022-07-25T09:21:44.042Z,5.35
2022-07-25T09:24:16.184Z,5.10
2022-07-25T09:26:44.337Z,4.88
2022-07-25T09:29:22.191Z,4.70
2022-07-25T09:31:49.833Z,5.35
2022-07-25T09:34:20.870Z,5.25
2022-07-25T09:36:54.760Z,5.50
2022-07-25T09:39:21.651Z,5.47
2022-07-25T09:41:49.694Z,5.10
2022-07-25T09:44:23.250Z,5.40
2022-07-25T09:46:50.776Z,5.18
2022-07-25T09:49:17.570Z,5.28
2022-07-25T09:51:44.567Z,5.72
2022-07-25T09:54:11.821Z,5.13
2022-07-25T09:56:38.637Z,5.72
2022-07-25T09:59:06.085Z,5.55
2022-07-25T10:01:38.442Z,5.70
2022-07-25T10:04:25.204Z,5.43
2022-07-25T10:07:06.892Z,5.63
2022-07-25T10:09:34.209Z,5.38
2022-07-25T10:12:11.710Z,6.03
2022-07-25T10:14:38.955Z,5.72
2022-07-25T10:17:06.489Z,4.95
2022-07-25T10:22:46.462Z,5.13
2022-07-25T10:25:20.723Z,5.22
2022-07-25T10:27:49.322Z,5.28
2022-07-25T10:30:24.142Z,5.43
2022-07-25T10:32:56.873Z,5.03
2022-07-25T10:35:23.625Z,5.10
2022-07-25T10:37:55.000Z,5.63
2022-07-25T10:40:33.150Z,5.28
2022-07-25T10:43:23.243Z,4.78
2022-07-25T10:45:52.968Z,5.45
2022-07-25T10:48:26.647Z,5.32
2022-07-25T10:51:04.490Z,5.38
2022-07-25T10:53:45.487Z,4.80
2022-07-25T10:56:16.170Z,5.15
2022-07-25T10:58:50.028Z,5.05
2022-07-25T11:01:30.053Z,5.38
2022-07-25T11:04:01.971Z,4.90
2022-07-25T11:06:36.115Z,4.72
2022-07-25T11:09:05.298Z,4.85
2022-07-25T11:11:37.563Z,5.13
2022-07-25T11:14:05.694Z,4.90
2022-07-25T11:16:32.517Z,4.43
2022-07-25T11:18:59.408Z,4.53
2022-07-25T11:21:26.118Z,4.78
2022-07-25T11:23:52.960Z,4.82
2022-07-25T11:26:20.419Z,4.68
2022-07-25T11:28:49.417Z,4.95
2022-07-25T11:31:18.071Z,4.32
2022-07-25T11:33:48.256Z,4.68
2022-07-25T11:36:15.937Z,4.43
2022-07-25T11:38:42.968Z,4.40
2022-07-25T11:41:09.983Z,4.63
2022-07-25T11:43:37.384Z,4.60
2022-07-25T11:46:07.369Z,4.55
2022-07-25T11:48:40.491Z,4.88
2022-07-25T11:51:14.969Z,4.95
2022-07-25T11:53:50.876Z,4.50
2022-07-25T11:56:43.812Z,4.70
2022-07-25T11:59:11.697Z,4.60
2022-07-25T12:01:40.536Z,5.13
2022-07-25T12:04:20.143Z,4.20
2022-07-25T12:06:48.869Z,4.50
2022-07-25T12:09:19.151Z,4.45
2022-07-25T12:11:47.585Z,4.68
2022-07-25T12:14:15.026Z,4.20
2022-07-25T12:16:42.249Z,4.30
2022-07-25T12:19:19.983Z,4.45
2022-07-25T12:21:47.034Z,4.32
2022-07-25T12:24:14.153Z,4.65
2022-07-25T12:26:40.925Z,4.40
2022-07-25T12:29:07.921Z,4.72
2022-07-25T12:31:35.071Z,4.32
2022-07-25T12:34:01.899Z,4.60
2022-07-25T12:36:28.924Z,4.88
2022-07-25T12:38:55.750Z,5.35
2022-07-25T12:41:23.705Z,4.82
2022-07-25T12:43:53.502Z,5.60
2022-07-25T12:46:20.389Z,5.03
2022-07-25T12:48:47.540Z,4.60
2022-07-25T12:51:14.442Z,4.90
2022-07-25T12:53:42.606Z,4.88
2022-07-25T12:56:09.981Z,5.20
2022-07-25T12:58:37.601Z,4.88
2022-07-25T13:01:06.331Z,4.57
2022-07-25T13:03:34.820Z,4.70
2022-07-25T13:06:03.124Z,5.75
2022-07-25T13:08:32.726Z,5.00
2022-07-25T13:11:03.359Z,4.63
2022-07-25T13:13:32.484Z,5.60
2022-07-25T13:16:01.230Z,4.90
2022-07-25T13:18:32.839Z,5.40
2022-07-25T13:21:00.937Z,5.05
2022-07-25T13:23:28.139Z,4.72
2022-07-25T13:25:55.082Z,4.57
2022-07-25T13:28:21.917Z,4.70
2022-07-25T13:30:48.847Z,5.18
2022-07-25T13:33:17.039Z,4.93
2022-07-25T13:35:43.806Z,4.72
2022-07-25T13:38:11.549Z,5.63
2022-07-25T13:40:41.202Z,4.93
2022-07-25T13:43:12.430Z,4.78
2022-07-25T13:45:42.999Z,5.20
2022-07-25T13:48:29.181Z,4.80
2022-07-25T13:50:57.518Z,4.95
2022-07-25T13:53:29.450Z,4.95
2022-07-25T13:55:58.407Z,4.35
2022-07-25T13:58:25.838Z,4.95
2022-07-25T14:00:59.612Z,4.90
2022-07-25T14:03:28.226Z,4.88
2022-07-25T14:05:55.110Z,5.07
2022-07-25T14:08:25.537Z,4.75
2022-07-25T14:10:53.149Z,5.07
2022-07-25T14:13:19.949Z,5.03
2022-07-25T14:15:46.769Z,4.50
2022-07-25T14:18:13.486Z,5.03
2022-07-25T14:20:40.316Z,4.70
2022-07-25T14:23:07.089Z,4.93
2022-07-25T14:25:34.046Z,4.78
2022-07-25T14:28:01.822Z,4.70
2022-07-25T14:30:28.736Z,5.03
2022-07-25T14:32:55.947Z,5.20
2022-07-25T14:35:28.784Z,4.75
2022-07-25T14:37:59.079Z,4.88
2022-07-25T14:40:25.891Z,5.10
2022-07-25T14:42:52.623Z,4.60
2022-07-25T14:45:19.619Z,4.43
2022-07-25T14:47:46.553Z,4.72
2022-07-25T14:50:13.457Z,4.88
2022-07-25T14:52:40.154Z,4.90
2022-07-25T14:55:07.880Z,4.82
2022-07-25T14:57:34.766Z,4.32
2022-07-25T15:00:02.311Z,5.53
2022-07-25T15:02:29.101Z,4.65
2022-07-25T15:04:56.250Z,5.05
2022-07-25T15:07:23.197Z,5.20
2022-07-25T15:09:50.105Z,5.35
2022-07-25T15:12:17.379Z,4.65
2022-07-25T15:14:44.468Z,5.03
2022-07-25T15:17:12.223Z,4.72
2022-07-25T15:19:39.169Z,5.57
2022-07-25T15:22:06.117Z,5.05
2022-07-25T15:24:50.125Z,4.53
2022-07-25T15:27:20.018Z,4.55
2022-07-25T15:29:47.114Z,4.85
2022-07-25T15:32:14.059Z,4.65
2022-07-25T15:34:41.058Z,4.72
2022-07-25T15:37:09.198Z,5.40
2022-07-25T15:39:36.055Z,4.93
2022-07-25T15:42:03.066Z,5.25
2022-07-25T15:44:32.753Z,4.95
2022-07-25T15:46:59.812Z,5.70
2022-07-25T15:49:26.931Z,5.18
2022-07-25T15:51:53.879Z,5.10
2022-07-25T15:54:22.925Z,4.35
2022-07-25T15:56:52.334Z,4.90
2022-07-25T15:59:19.058Z,5.13
2022-07-25T16:01:46.079Z,4.47
2022-07-25T16:04:13.513Z,4.75
2022-07-25T16:06:41.598Z,4.35
2022-07-25T16:09:12.394Z,4.55
2022-07-25T16:11:39.386Z,4.75
2022-07-25T16:14:06.477Z,4.53
2022-07-25T16:16:33.598Z,4.57
2022-07-25T16:19:00.709Z,4.70
2022-07-25T16:21:27.652Z,4.63
2022-07-25T16:23:54.735Z,4.57
2022-07-25T16:26:22.834Z,4.53
2022-07-25T16:28:54.062Z,4.55
2022-07-25T16:31:24.587Z,4.50
2022-07-25T16:33:51.657Z,4.70
2022-07-25T16:36:20.714Z,4.45
2022-07-25T16:38:49.339Z,4.63
2022-07-25T16:41:20.915Z,4.80
2022-07-25T16:43:49.051Z,4.75
2022-07-25T16:46:15.882Z,4.53
2022-07-25T16:48:42.692Z,4.78
2022-07-25T16:51:09.654Z,4.68
2022-07-25T16:53:36.746Z,4.83
2022-07-25T16:56:04.383Z,4.53
2022-07-25T16:58:31.311Z,4.53
2022-07-25T17:00:59.425Z,4.90
2022-07-25T17:03:26.535Z,4.97
2022-07-25T17:05:54.761Z,5.57
2022-07-25T17:08:21.562Z,4.88
2022-07-25T17:10:48.557Z,4.65
2022-07-25T17:13:15.394Z,4.88
2022-07-25T17:15:43.770Z,4.57
2022-07-25T17:18:10.577Z,5.13
2022-07-25T17:20:37.558Z,4.40
2022-07-25T17:23:04.532Z,5.10
2022-07-25T17:25:32.013Z,4.80
2022-07-25T17:27:59.702Z,5.00
2022-07-25T17:30:27.197Z,4.68
2022-07-25T17:32:54.340Z,5.03
2022-07-25T17:35:21.884Z,5.20
2022-07-25T17:37:49.236Z,5.35
2022-07-25T17:40:16.559Z,4.88
2022-07-25T17:42:45.572Z,5.70
2022-07-25T17:45:12.707Z,5.30
2022-07-25T17:47:40.058Z,5.30
2022-07-25T17:50:07.158Z,4.80
2022-07-25T17:52:33.883Z,4.88
2022-07-25T17:55:01.052Z,4.07
2022-07-25T17:57:28.432Z,4.50
2022-07-25T17:59:55.681Z,3.30
2022-07-25T18:02:22.578Z,3.10
2022-07-25T18:04:49.527Z,2.80
2022-07-25T18:07:16.699Z,3.30
2022-07-25T18:09:43.493Z,3.40
2022-07-25T18:12:11.024Z,4.03
2022-07-25T18:14:38.378Z,4.45
2022-07-25T18:17:06.384Z,4.40
2022-07-25T18:19:33.838Z,4.40
2022-07-25T18:22:00.742Z,4.30
2022-07-25T18:24:29.531Z,3.90
2022-07-25T18:26:58.844Z,4.75
2022-07-25T18:29:26.027Z,4.35
2022-07-25T18:31:53.875Z,4.55
2022-07-25T18:34:20.800Z,4.80
2022-07-25T18:36:48.259Z,5.05
2022-07-25T18:39:15.143Z,4.80
2022-07-25T18:41:41.925Z,4.63
2022-07-25T18:44:09.330Z,5.05
2022-07-25T18:46:36.467Z,4.80
2022-07-25T18:49:03.454Z,5.10
2022-07-25T18:51:30.285Z,4.70
2022-07-25T18:53:57.169Z,4.57
2022-07-25T18:56:24.092Z,4.32
2022-07-25T18:58:50.918Z,4.78
2022-07-25T19:01:17.760Z,4.30
2022-07-25T19:03:44.581Z,4.55
2022-07-25T19:06:11.678Z,4.68
2022-07-25T19:08:39.793Z,4.10
2022-07-25T19:11:06.876Z,4.30
2022-07-25T19:13:51.110Z,4.20
2022-07-25T19:16:18.582Z,4.60
2022-07-25T19:18:45.432Z,4.32
2022-07-25T19:21:12.229Z,4.55
2022-07-25T19:23:39.240Z,4.35
2022-07-25T19:26:06.399Z,3.97
2022-07-25T19:28:33.218Z,4.13
2022-07-25T19:31:00.028Z,3.83
2022-07-25T19:33:34.999Z,4.10
2022-07-25T19:36:04.397Z,4.00
2022-07-25T19:38:31.558Z,4.35
2022-07-25T19:40:59.051Z,3.70
2022-07-25T19:43:25.940Z,4.10
2022-07-25T19:45:52.757Z,4.07
2022-07-25T19:48:23.894Z,4.00
2022-07-25T19:50:51.747Z,3.90
2022-07-25T19:53:19.171Z,3.63
2022-07-25T19:55:46.006Z,3.50
2022-07-25T19:58:13.060Z,3.85
2022-07-25T20:00:40.446Z,3.92
2022-07-25T20:03:07.436Z,3.35
2022-07-25T20:05:34.875Z,3.80
2022-07-25T20:08:01.821Z,3.13
2022-07-25T20:10:28.854Z,3.72
2022-07-25T20:12:59.540Z,4.10
2022-07-25T20:15:28.487Z,4.13
2022-07-25T20:17:56.841Z,4.03
2022-07-25T20:20:24.586Z,4.63
2022-07-25T20:22:51.661Z,4.20
2022-07-25T20:25:18.681Z,4.55
2022-07-25T20:27:45.522Z,5.80
2022-07-25T20:30:13.491Z,5.07
2022-07-25T20:32:40.335Z,6.18
2022-07-25T20:35:07.636Z,6.45
2022-07-25T20:37:35.575Z,6.47
2022-07-25T20:40:02.474Z,6.40
2022-07-25T20:42:29.275Z,6.15
2022-07-25T20:44:56.825Z,7.00
2022-07-25T20:47:23.873Z,6.38
2022-07-25T20:49:50.862Z,6.32
2022-07-25T20:52:17.815Z,5.82
2022-07-25T20:54:44.599Z,6.57
2022-07-25T20:57:11.891Z,6.32
2022-07-25T20:59:38.601Z,6.30
2022-07-25T21:02:05.363Z,5.30
2022-07-25T21:04:32.117Z,5.63
2022-07-25T21:06:58.907Z,5.40
2022-07-25T21:09:28.467Z,5.25
2022-07-25T21:11:59.138Z,5.47
2022-07-25T21:14:27.098Z,5.93
2022-07-25T21:16:54.285Z,5.15
2022-07-25T21:19:21.129Z,5.75
2022-07-25T21:21:48.695Z,5.22
2022-07-25T21:24:15.535Z,5.80
2022-07-25T21:26:42.486Z,5.65
2022-07-25T21:29:09.785Z,5.50
2022-07-25T21:31:37.614Z,5.78
2022-07-25T21:34:04.553Z,4.93
2022-07-25T21:36:31.264Z,5.38
2022-07-25T21:38:58.262Z,5.25
2022-07-25T21:41:25.054Z,5.63
2022-07-25T21:43:51.784Z,7.03
2022-07-25T21:46:18.598Z,7.93
2022-07-25T21:49:04.171Z,7.25
2022-07-25T21:51:40.631Z,7.55
2022-07-25T21:54:08.186Z,7.47
2022-07-25T21:56:35.062Z,7.20
2022-07-25T21:59:01.941Z,7.43
2022-07-25T22:01:28.887Z,8.07
2022-07-25T22:03:55.990Z,7.57
2022-07-25T22:06:22.982Z,7.93
2022-07-25T22:08:52.163Z,7.78
2022-07-25T22:11:38.667Z,8.00
2022-07-25T22:14:05.854Z,7.90
2022-07-25T22:16:32.731Z,8.32
2022-07-25T22:18:59.891Z,7.97
2022-07-25T22:21:26.760Z,8.23
2022-07-25T22:23:53.499Z,8.57
2022-07-25T22:26:20.482Z,8.20
2022-07-25T22:28:47.875Z,8.32
2022-07-25T22:31:15.237Z,8.30
2022-07-25T22:33:42.251Z,8.18
2022-07-25T22:36:09.124Z,8.95
2022-07-25T22:38:36.780Z,8.15
2022-07-25T22:41:03.536Z,9.07
2022-07-25T22:43:58.271Z,8.52
2022-07-25T22:46:17.135Z,8.43
2022-07-25T22:48:44.068Z,8.45
2022-07-25T22:51:11.498Z,8.93
2022-07-25T22:53:38.225Z,8.80
2022-07-25T22:56:05.237Z,8.85
2022-07-25T22:58:32.005Z,8.25
2022-07-25T23:00:58.850Z,8.85
2022-07-25T23:03:26.750Z,9.80
2022-07-25T23:05:59.899Z,8.77
2022-07-25T23:08:26.666Z,8.43
2022-07-25T23:10:53.506Z,8.38
2022-07-25T23:13:20.827Z,8.38
2022-07-25T23:15:50.418Z,8.70
2022-07-25T23:18:18.770Z,8.68
2022-07-25T23:20:45.501Z,8.50
2022-07-25T23:23:12.474Z,8.23
2022-07-25T23:25:39.279Z,8.23
2022-07-25T23:28:06.070Z,8.15
2022-07-25T23:30:36.702Z,7.70
2022-07-25T23:33:06.961Z,7.93
2022-07-25T23:35:33.820Z,8.07
2022-07-25T23:38:02.684Z,7.35
2022-07-25T23:40:29.624Z,6.97
2022-07-25T23:42:56.477Z,6.03
2022-07-25T23:45:26.346Z,7.50
2022-07-25T23:47:55.516Z,7.20
2022-07-25T23:50:22.986Z,6.93
2022-07-25T23:52:49.793Z,6.53
2022-07-25T23:55:16.827Z,6.43
2022-07-25T23:57:43.682Z,6.22
